Time;durP1;ratioP1;P1;durP2;ratioP2;P2;SDS_P1;SDS_P2;PMS_P1;PMS_P2;Temp;Humidity;BMP_temperature;BMP_pressure;BME280_temperature;BME280_humidity;BME280_pressure;Samples;Min_cycle;Max_cycle;Signal;HPM_P1;HPM_P2
2022/06/30 00:00:14;;;;;;;6.15;5.18;;;20.60;99.90;;;;;;5065528;28;20493;-81
2022/06/30 00:02:40;;;;;;;6.85;5.45;;;20.60;99.90;;;;;;5068814;28;20048;-81
2022/06/30 00:05:06;;;;;;;5.93;5.43;;;20.60;99.90;;;;;;5064319;28;20052;-81
2022/06/30 00:07:32;;;;;;;6.13;5.45;;;20.50;99.90;;;;;;5066400;28;20045;-82
2022/06/30 00:09:58;;;;;;;5.35;4.85;;;20.50;99.90;;;;;;5068780;28;20151;-82
2022/06/30 00:12:23;;;;;;;7.78;5.18;;;20.50;99.90;;;;;;5048314;28;20059;-82
2022/06/30 00:14:49;;;;;;;5.60;4.93;;;20.40;99.90;;;;;;5047741;28;20037;-81
2022/06/30 00:17:15;;;;;;;5.90;5.30;;;20.30;99.90;;;;;;5048268;28;20120;-82
2022/06/30 00:19:41;;;;;;;6.28;5.70;;;20.30;99.90;;;;;;5052466;28;20419;-82
2022/06/30 00:22:07;;;;;;;5.60;5.10;;;20.30;99.90;;;;;;5064687;28;20053;-80
2022/06/30 00:24:34;;;;;;;7.03;5.90;;;20.30;99.90;;;;;;5046489;28;20041;-82
2022/06/30 00:27:00;;;;;;;6.03;5.18;;;20.20;99.90;;;;;;5066045;28;20101;-81
2022/06/30 00:29:25;;;;;;;6.85;5.35;;;20.10;99.90;;;;;;5066630;28;20123;-81
2022/06/30 00:31:51;;;;;;;6.75;5.47;;;20.10;99.90;;;;;;5038749;28;20049;-82
2022/06/30 00:34:17;;;;;;;5.88;5.28;;;20.00;99.90;;;;;;5039712;28;20032;-81
2022/06/30 00:36:43;;;;;;;7.28;4.90;;;20.00;99.90;;;;;;5048501;28;20048;-80
2022/06/30 00:39:10;;;;;;;5.55;5.05;;;19.90;99.90;;;;;;5047680;28;20053;-80
2022/06/30 00:41:41;;;;;;;5.38;4.88;;;19.90;99.90;;;;;;5051282;28;20040;-81
2022/06/30 00:44:07;;;;;;;5.53;5.00;;;19.80;99.90;;;;;;5048031;28;20075;-81
2022/06/30 00:46:34;;;;;;;5.60;4.78;;;19.70;99.90;;;;;;5050820;28;20052;-80
2022/06/30 00:49:00;;;;;;;5.53;5.03;;;19.70;99.90;;;;;;5065534;28;20587;-80
2022/06/30 00:51:26;;;;;;;5.20;4.70;;;19.70;99.90;;;;;;5032226;28;20040;-81
2022/06/30 00:53:54;;;;;;;5.88;5.15;;;19.70;99.90;;;;;;5046150;28;20045;-82
2022/06/30 00:56:22;;;;;;;6.25;5.28;;;19.70;99.90;;;;;;5064813;28;20148;-83
2022/06/30 00:58:51;;;;;;;6.30;5.60;;;19.60;99.90;;;;;;5047466;28;20048;-83
2022/06/30 01:01:17;;;;;;;6.13;5.30;;;19.60;99.90;;;;;;5067990;28;20498;-82
2022/06/30 01:03:44;;;;;;;6.68;5.53;;;19.50;99.90;;;;;;5061583;28;20049;-82
2022/06/30 01:06:10;;;;;;;6.00;5.50;;;19.50;99.90;;;;;;5065640;28;20055;-83
2022/06/30 01:08:36;;;;;;;7.88;5.50;;;19.40;99.90;;;;;;5046939;28;20051;-83
2022/06/30 01:13:48;;;;;;;8.75;5.30;;;19.40;99.90;;;;;;5048860;28;20045;-83
2022/06/30 01:16:14;;;;;;;6.45;5.40;;;19.40;99.90;;;;;;5041407;28;20045;-83
2022/06/30 01:18:40;;;;;;;6.07;4.88;;;19.40;99.90;;;;;;5031511;28;20033;-81
2022/06/30 01:21:06;;;;;;;5.57;5.05;;;19.30;99.90;;;;;;5048106;28;20574;-82
2022/06/30 01:23:32;;;;;;;5.32;4.82;;;19.30;99.90;;;;;;5062718;28;20032;-82
2022/06/30 01:25:57;;;;;;;4.97;4.57;;;19.30;99.90;;;;;;5062674;28;20103;-82
2022/06/30 01:28:23;;;;;;;5.65;5.00;;;19.30;99.90;;;;;;5062417;28;20040;-83
2022/06/30 01:30:49;;;;;;;5.18;4.72;;;19.30;99.90;;;;;;5062965;28;20040;-82
2022/06/30 01:33:15;;;;;;;6.18;5.18;;;19.30;99.90;;;;;;5043095;28;20049;-83
2022/06/30 01:35:40;;;;;;;6.45;4.72;;;19.30;99.90;;;;;;5031976;28;20041;-81
2022/06/30 01:38:06;;;;;;;5.25;4.75;;;19.40;99.90;;;;;;5043524;28;20044;-82
2022/06/30 01:40:34;;;;;;;5.72;5.10;;;19.40;99.90;;;;;;5038360;28;21070;-81
2022/06/30 01:43:01;;;;;;;7.95;5.03;;;19.40;99.90;;;;;;5065931;28;20041;-82
2022/06/30 01:45:27;;;;;;;6.25;4.70;;;19.40;99.90;;;;;;5064282;28;20052;-81
2022/06/30 01:47:53;;;;;;;5.07;4.50;;;19.40;99.90;;;;;;5030847;28;20052;-80
2022/06/30 01:50:26;;;;;;;5.30;4.80;;;19.40;99.90;;;;;;5039834;28;20051;-80
2022/06/30 01:52:52;;;;;;;7.03;4.70;;;19.40;99.90;;;;;;5051448;28;20063;-81
2022/06/30 01:55:18;;;;;;;5.30;4.70;;;19.40;99.90;;;;;;5046366;28;20045;-81
2022/06/30 01:57:44;;;;;;;4.78;4.38;;;19.40;99.90;;;;;;5047194;28;20065;-80
2022/06/30 02:00:14;;;;;;;5.70;4.75;;;19.40;99.90;;;;;;5029681;28;20041;-81
2022/06/30 02:02:41;;;;;;;5.10;4.55;;;19.40;99.90;;;;;;5062767;28;20116;-81
2022/06/30 02:05:07;;;;;;;5.80;5.20;;;19.40;99.90;;;;;;5066064;28;20080;-80
2022/06/30 02:07:36;;;;;;;7.28;4.88;;;19.40;99.90;;;;;;5031547;28;20045;-80
2022/06/30 02:10:07;;;;;;;5.00;4.43;;;19.30;99.90;;;;;;5036234;28;20072;-81
2022/06/30 02:12:46;;;;;;;6.95;4.57;;;19.40;99.90;;;;;;5047677;28;20044;-81
2022/06/30 02:15:20;;;;;;;7.10;4.88;;;19.30;99.90;;;;;;5054712;28;20044;-81
2022/06/30 02:17:50;;;;;;;5.45;4.72;;;19.30;99.90;;;;;;5064329;28;20029;-80
2022/06/30 02:20:21;;;;;;;5.55;4.57;;;19.30;99.90;;;;;;5048589;28;20072;-80
2022/06/30 02:22:47;;;;;;;4.95;4.55;;;19.30;99.90;;;;;;5052853;28;20029;-80
2022/06/30 02:25:13;;;;;;;5.10;4.38;;;19.30;99.90;;;;;;5053250;28;20045;-79
2022/06/30 02:27:39;;;;;;;7.13;4.70;;;19.30;99.90;;;;;;5043310;28;20056;-80
2022/06/30 02:30:06;;;;;;;5.85;4.85;;;19.30;99.90;;;;;;5036900;28;20478;-80
2022/06/30 02:32:32;;;;;;;5.13;4.63;;;19.20;99.90;;;;;;5069767;28;20484;-81
2022/06/30 02:34:58;;;;;;;5.53;4.53;;;19.20;99.90;;;;;;5048153;28;20052;-82
2022/06/30 02:37:23;;;;;;;5.72;5.20;;;19.20;99.90;;;;;;5071281;28;20098;-82
2022/06/30 02:39:49;;;;;;;4.80;4.40;;;19.20;99.90;;;;;;5024092;28;20070;-82
2022/06/30 02:42:15;;;;;;;6.65;4.70;;;19.10;99.90;;;;;;5052031;28;20112;-81
2022/06/30 02:44:40;;;;;;;5.20;4.70;;;19.10;99.90;;;;;;5037159;28;20102;-81
2022/06/30 02:47:06;;;;;;;8.05;4.95;;;19.10;99.90;;;;;;5051091;28;20040;-82
2022/06/30 02:49:32;;;;;;;5.50;5.00;;;19.10;99.90;;;;;;5030449;28;20037;-81
2022/06/30 02:51:58;;;;;;;7.50;5.07;;;19.10;99.90;;;;;;5024757;28;20045;-81
2022/06/30 02:54:23;;;;;;;5.75;4.38;;;19.10;99.90;;;;;;5040235;28;20048;-81
2022/06/30 02:56:49;;;;;;;6.55;5.10;;;19.10;99.90;;;;;;5040447;28;20040;-81
2022/06/30 02:59:15;;;;;;;4.88;4.28;;;19.00;99.90;;;;;;5047810;28;20059;-80
2022/06/30 03:01:41;;;;;;;5.45;4.82;;;19.00;99.90;;;;;;5053658;28;20595;-81
2022/06/30 03:04:07;;;;;;;5.88;5.30;;;19.10;99.90;;;;;;5050029;28;20106;-82
2022/06/30 03:06:33;;;;;;;5.72;4.68;;;19.00;99.90;;;;;;5051983;28;20048;-82
2022/06/30 03:08:59;;;;;;;6.00;5.25;;;19.00;99.90;;;;;;5048636;28;20607;-82
2022/06/30 03:11:26;;;;;;;5.75;5.00;;;19.00;99.90;;;;;;5048547;28;20045;-82
2022/06/30 03:13:52;;;;;;;5.63;4.88;;;18.90;99.90;;;;;;5034992;28;20076;-82
2022/06/30 03:16:18;;;;;;;5.72;5.00;;;18.90;99.90;;;;;;5052499;28;20044;-81
2022/06/30 03:18:44;;;;;;;5.28;4.72;;;18.90;99.90;;;;;;5065345;28;20052;-82
2022/06/30 03:21:11;;;;;;;7.20;5.22;;;18.90;99.90;;;;;;5060153;28;20049;-83
2022/06/30 03:23:37;;;;;;;5.45;4.78;;;18.80;99.90;;;;;;5045857;28;20057;-83
2022/06/30 03:26:03;;;;;;;5.60;5.10;;;18.80;99.90;;;;;;5049072;28;20052;-81
2022/06/30 03:28:29;;;;;;;7.57;5.10;;;18.80;99.90;;;;;;5064453;28;20088;-82
2022/06/30 03:30:56;;;;;;;6.60;5.10;;;18.70;99.90;;;;;;5065144;28;20055;-82
2022/06/30 03:33:22;;;;;;;5.47;4.93;;;18.70;99.90;;;;;;5046266;28;20084;-82
2022/06/30 03:35:48;;;;;;;5.55;5.05;;;18.70;99.90;;;;;;5048599;28;20067;-82
2022/06/30 03:38:14;;;;;;;7.32;5.28;;;18.70;99.90;;;;;;5048747;28;20045;-80
2022/06/30 03:40:41;;;;;;;7.82;5.28;;;18.70;99.90;;;;;;5042373;28;20048;-81
2022/06/30 03:43:07;;;;;;;5.95;5.25;;;18.60;99.90;;;;;;5039924;28;20041;-81
2022/06/30 03:45:34;;;;;;;7.70;5.32;;;18.60;99.90;;;;;;5052787;28;20642;-81
2022/06/30 03:48:01;;;;;;;6.55;5.20;;;18.60;99.90;;;;;;5065170;28;20110;-81
2022/06/30 03:50:27;;;;;;;6.88;5.57;;;18.60;99.90;;;;;;5049889;28;20029;-81
2022/06/30 03:52:53;;;;;;;5.78;5.28;;;18.70;99.90;;;;;;5068471;28;20047;-81
2022/06/30 03:55:19;;;;;;;6.07;5.47;;;18.70;99.90;;;;;;5051493;28;20079;-81
2022/06/30 03:57:46;;;;;;;8.57;5.68;;;18.70;99.90;;;;;;5066405;28;20045;-81
2022/06/30 04:00:12;;;;;;;6.43;5.50;;;18.60;99.90;;;;;;5052268;28;20053;-81
2022/06/30 04:02:38;;;;;;;8.00;5.22;;;18.60;99.90;;;;;;5053131;28;20044;-81
2022/06/30 04:05:04;;;;;;;6.65;5.35;;;18.70;99.90;;;;;;5036857;28;20064;-81
2022/06/30 04:07:30;;;;;;;6.30;5.70;;;18.60;99.90;;;;;;5032009;28;20049;-82
2022/06/30 04:09:56;;;;;;;6.00;5.38;;;18.60;99.90;;;;;;5050230;28;20445;-81
2022/06/30 04:12:22;;;;;;;7.85;6.47;;;18.60;99.90;;;;;;5043537;28;20519;-81
2022/06/30 04:14:47;;;;;;;6.82;5.70;;;18.60;99.90;;;;;;5052131;28;20073;-82
2022/06/30 04:17:13;;;;;;;7.90;5.60;;;18.60;99.90;;;;;;5014710;28;20051;-81
2022/06/30 04:19:39;;;;;;;7.20;5.68;;;18.60;99.90;;;;;;5063140;28;20067;-81
2022/06/30 04:22:05;;;;;;;8.77;6.63;;;18.60;99.90;;;;;;5052580;28;20040;-81
2022/06/30 04:24:30;;;;;;;6.88;6.05;;;18.60;99.90;;;;;;5066945;28;20063;-81
2022/06/30 04:26:56;;;;;;;6.88;6.28;;;18.60;99.90;;;;;;5063691;28;20044;-81
2022/06/30 04:29:22;;;;;;;6.90;6.30;;;18.50;99.90;;;;;;5063033;28;20047;-81
2022/06/30 04:34:32;;;;;;;7.50;6.80;;;18.60;99.90;;;;;;5063931;28;20036;-81
2022/06/30 04:36:58;;;;;;;8.48;7.07;;;18.50;99.90;;;;;;5067474;28;20041;-80
2022/06/30 04:39:23;;;;;;;7.72;6.53;;;18.50;99.90;;;;;;5060039;28;20109;-81
2022/06/30 04:41:49;;;;;;;7.18;6.43;;;18.50;99.90;;;;;;5049834;28;20041;-81
2022/06/30 04:44:15;;;;;;;10.40;7.20;;;18.50;99.90;;;;;;5065075;28;20048;-80
2022/06/30 04:46:40;;;;;;;8.00;7.20;;;18.50;99.90;;;;;;5044284;28;20087;-81
2022/06/30 04:49:07;;;;;;;8.30;6.88;;;18.60;99.90;;;;;;5047566;28;20064;-81
2022/06/30 04:51:33;;;;;;;8.07;7.28;;;18.60;99.90;;;;;;5064239;28;20687;-80
2022/06/30 04:53:58;;;;;;;8.18;6.90;;;18.60;99.90;;;;;;5051378;28;20612;-81
2022/06/30 04:56:24;;;;;;;7.10;6.40;;;18.70;99.90;;;;;;5048767;28;20045;-81
2022/06/30 04:58:50;;;;;;;9.10;6.75;;;18.70;99.90;;;;;;5056025;28;20061;-81
2022/06/30 05:01:16;;;;;;;9.23;7.47;;;18.70;99.90;;;;;;5047236;28;20047;-81
2022/06/30 05:03:41;;;;;;;7.75;6.93;;;18.70;99.90;;;;;;5065800;28;20043;-81
2022/06/30 05:06:08;;;;;;;8.23;6.50;;;18.70;99.90;;;;;;5036867;28;20051;-81
2022/06/30 05:08:34;;;;;;;8.23;7.03;;;18.70;99.90;;;;;;5046363;28;20052;-82
2022/06/30 05:11:00;;;;;;;7.95;6.63;;;18.70;99.90;;;;;;5063529;28;20048;-83
2022/06/30 05:13:27;;;;;;;9.05;6.88;;;18.70;99.90;;;;;;5066688;28;20100;-83
2022/06/30 05:15:52;;;;;;;7.80;6.90;;;18.70;99.90;;;;;;5048132;28;20937;-80
2022/06/30 05:18:18;;;;;;;9.02;6.13;;;18.70;99.90;;;;;;5037762;28;20057;-81
2022/06/30 05:20:44;;;;;;;7.82;6.88;;;18.70;99.90;;;;;;5029380;28;20079;-81
2022/06/30 05:23:10;;;;;;;7.22;6.40;;;18.70;99.90;;;;;;5037895;28;20380;-84
2022/06/30 05:28:21;;;;;;;7.97;7.18;;;18.70;99.90;;;;;;5052152;28;20052;-81
2022/06/30 05:30:50;;;;;;;8.68;6.95;;;18.70;99.90;;;;;;5064892;28;20052;-82
2022/06/30 05:33:20;;;;;;;7.72;6.85;;;18.80;99.90;;;;;;5047474;28;20049;-82
2022/06/30 05:35:50;;;;;;;9.68;7.07;;;18.80;99.90;;;;;;5067157;28;20048;-83
2022/06/30 05:38:17;;;;;;;8.05;7.25;;;18.90;99.90;;;;;;5043174;28;20122;-83
2022/06/30 05:40:45;;;;;;;8.02;7.03;;;18.90;99.90;;;;;;5033039;28;20041;-82
2022/06/30 05:43:15;;;;;;;8.50;7.32;;;19.00;99.90;;;;;;5038383;28;20056;-82
2022/06/30 05:45:42;;;;;;;8.20;7.18;;;19.10;99.90;;;;;;5037048;28;20108;-82
2022/06/30 05:48:08;;;;;;;7.78;7.00;;;19.20;99.90;;;;;;5061630;28;20473;-84
2022/06/30 05:50:34;;;;;;;8.07;7.38;;;19.30;99.90;;;;;;5044954;28;20068;-77
2022/06/30 05:53:00;;;;;;;8.93;7.68;;;19.30;99.90;;;;;;5065342;28;20616;-78
2022/06/30 05:55:25;;;;;;;10.75;6.93;;;19.40;99.90;;;;;;5046982;28;20043;-79
2022/06/30 05:58:01;;;;;;;8.45;7.57;;;19.50;99.90;;;;;;5065323;28;20041;-79
2022/06/30 06:00:28;;;;;;;8.55;7.68;;;19.60;99.90;;;;;;5063083;28;20079;-75
2022/06/30 06:02:54;;;;;;;8.82;8.02;;;19.70;99.90;;;;;;5048331;28;20068;-76
2022/06/30 06:05:21;;;;;;;16.17;7.30;;;19.90;99.90;;;;;;5050476;28;20126;-75
2022/06/30 06:07:48;;;;;;;10.02;7.15;;;20.00;99.90;;;;;;5047087;28;20040;-71
2022/06/30 06:10:14;;;;;;;8.25;7.25;;;20.10;99.90;;;;;;5038528;28;20527;-69
2022/06/30 06:12:42;;;;;;;7.95;6.80;;;20.20;99.90;;;;;;5072508;28;20108;-70
2022/06/30 06:15:12;;;;;;;9.77;7.75;;;20.40;99.90;;;;;;5053718;28;20056;-70
2022/06/30 06:17:42;;;;;;;8.57;7.65;;;20.50;99.90;;;;;;5071856;28;20053;-70
2022/06/30 06:20:09;;;;;;;8.48;7.50;;;20.70;99.90;;;;;;5066432;28;20052;-70
2022/06/30 06:22:35;;;;;;;8.32;7.53;;;20.80;99.90;;;;;;5046386;28;20094;-70
2022/06/30 06:25:01;;;;;;;7.32;6.57;;;20.90;99.90;;;;;;5039918;28;20055;-70
2022/06/30 06:27:26;;;;;;;7.65;6.90;;;21.00;99.90;;;;;;5040165;28;20040;-70
2022/06/30 06:29:52;;;;;;;7.68;6.88;;;21.20;99.90;;;;;;5042078;28;20071;-70
2022/06/30 06:32:17;;;;;;;8.65;6.68;;;21.30;99.90;;;;;;5046204;28;20155;-70
2022/06/30 06:34:43;;;;;;;9.50;6.97;;;21.50;99.90;;;;;;5061015;28;20045;-70
2022/06/30 06:37:09;;;;;;;9.77;6.70;;;21.60;99.90;;;;;;5035063;28;20045;-70
2022/06/30 06:39:34;;;;;;;7.75;6.28;;;21.70;99.90;;;;;;5063520;28;20045;-70
2022/06/30 06:42:00;;;;;;;7.40;6.55;;;21.90;99.90;;;;;;5060763;28;20056;-70
2022/06/30 06:44:26;;;;;;;10.18;7.05;;;22.00;99.90;;;;;;5039306;28;20045;-70
2022/06/30 06:46:51;;;;;;;7.47;6.43;;;22.20;99.90;;;;;;5058132;28;20048;-70
2022/06/30 06:49:17;;;;;;;7.43;6.50;;;22.20;99.90;;;;;;5059808;28;20049;-70
2022/06/30 06:51:43;;;;;;;8.80;6.65;;;22.30;99.90;;;;;;5060519;28;20066;-70
2022/06/30 06:54:08;;;;;;;7.68;6.35;;;22.30;99.90;;;;;;5063728;28;20139;-70
2022/06/30 06:56:34;;;;;;;7.13;6.43;;;22.40;99.90;;;;;;5063926;28;20048;-72
2022/06/30 06:59:00;;;;;;;6.80;6.10;;;22.50;99.90;;;;;;5065884;28;20098;-70
2022/06/30 07:01:26;;;;;;;7.00;6.30;;;22.60;99.90;;;;;;5049108;28;20138;-71
2022/06/30 07:03:51;;;;;;;8.68;6.55;;;22.70;99.90;;;;;;5067702;28;20100;-69
2022/06/30 07:06:17;;;;;;;6.68;6.10;;;22.80;99.90;;;;;;5050425;28;20044;-69
2022/06/30 07:08:43;;;;;;;8.48;6.13;;;22.90;99.90;;;;;;5040942;28;20040;-69
2022/06/30 07:11:09;;;;;;;7.18;5.85;;;23.00;99.90;;;;;;5074999;28;20062;-69
2022/06/30 07:13:35;;;;;;;7.65;6.30;;;23.10;99.90;;;;;;5076248;28;20112;-69
2022/06/30 07:16:02;;;;;;;8.70;6.72;;;23.10;99.90;;;;;;5072696;28;20078;-68
2022/06/30 07:18:28;;;;;;;9.90;6.70;;;23.10;99.90;;;;;;5068170;28;20044;-69
2022/06/30 07:20:53;;;;;;;8.73;5.60;;;23.20;99.90;;;;;;5072015;28;20048;-70
2022/06/30 07:23:19;;;;;;;7.85;6.28;;;23.30;99.90;;;;;;5062473;28;20044;-69
2022/06/30 07:25:45;;;;;;;8.38;6.30;;;23.30;99.90;;;;;;5065584;28;20043;-71
2022/06/30 07:28:11;;;;;;;11.27;6.60;;;23.50;99.90;;;;;;5062302;28;20032;-71
2022/06/30 07:30:37;;;;;;;9.23;6.90;;;23.60;99.90;;;;;;5036427;28;20513;-71
2022/06/30 07:33:03;;;;;;;7.93;6.47;;;23.60;99.90;;;;;;5052212;28;20048;-72
2022/06/30 07:35:29;;;;;;;8.00;7.30;;;23.70;99.90;;;;;;5075609;28;20044;-72
2022/06/30 07:37:54;;;;;;;7.95;7.13;;;23.70;99.90;;;;;;5073861;28;20563;-73
2022/06/30 07:40:20;;;;;;;7.63;6.70;;;23.80;99.90;;;;;;5053411;28;20048;-71
2022/06/30 07:42:47;;;;;;;10.20;6.97;;;23.80;99.90;;;;;;5054140;28;20075;-71
2022/06/30 07:45:13;;;;;;;6.97;6.38;;;23.90;99.90;;;;;;5073729;28;20355;-72
2022/06/30 07:47:40;;;;;;;8.27;6.40;;;24.00;99.90;;;;;;5054570;28;20067;-72
2022/06/30 07:50:07;;;;;;;7.65;6.30;;;24.10;99.90;;;;;;5073946;28;20052;-71
2022/06/30 07:52:35;;;;;;;7.75;6.97;;;24.20;99.90;;;;;;5058132;28;20041;-72
2022/06/30 07:55:02;;;;;;;8.70;7.00;;;24.40;99.90;;;;;;5065861;28;20711;-72
2022/06/30 07:57:29;;;;;;;7.80;7.00;;;24.40;99.90;;;;;;5058630;28;20048;-72
2022/06/30 07:59:55;;;;;;;8.88;6.50;;;24.50;99.90;;;;;;5069821;28;20052;-72
2022/06/30 08:02:20;;;;;;;10.00;7.45;;;24.70;99.90;;;;;;5055132;28;20056;-71
2022/06/30 08:04:47;;;;;;;8.40;7.25;;;24.80;99.90;;;;;;5068523;28;20040;-72
2022/06/30 08:07:12;;;;;;;8.68;7.72;;;24.80;99.90;;;;;;5041371;28;20079;-72
2022/06/30 08:09:38;;;;;;;8.07;7.38;;;24.90;99.90;;;;;;5057127;28;20710;-72
2022/06/30 08:12:06;;;;;;;10.90;7.88;;;25.00;99.90;;;;;;5073720;28;20060;-72
2022/06/30 08:14:32;;;;;;;10.38;8.15;;;25.10;99.90;;;;;;5054266;28;20508;-71
2022/06/30 08:16:58;;;;;;;9.23;7.85;;;25.10;99.90;;;;;;5067786;28;20400;-72
2022/06/30 08:19:24;;;;;;;8.70;7.80;;;25.20;99.90;;;;;;5074677;28;20048;-71
2022/06/30 08:21:50;;;;;;;8.63;7.57;;;25.20;99.90;;;;;;5057194;28;20048;-72
2022/06/30 08:24:16;;;;;;;8.77;7.75;;;25.30;99.90;;;;;;5072201;28;20628;-71
2022/06/30 08:26:41;;;;;;;10.02;7.70;;;25.50;99.90;;;;;;5055712;28;20032;-71
2022/06/30 08:29:08;;;;;;;9.02;8.10;;;25.60;99.90;;;;;;5073481;28;20050;-72
2022/06/30 08:31:35;;;;;;;8.88;8.02;;;25.70;99.90;;;;;;5038094;28;20484;-71
2022/06/30 08:34:02;;;;;;;10.50;8.10;;;25.80;99.90;;;;;;5032081;28;20098;-72
2022/06/30 08:36:28;;;;;;;8.52;7.68;;;25.90;99.90;;;;;;5070069;28;20040;-72
2022/06/30 08:38:54;;;;;;;9.23;8.32;;;25.90;99.90;;;;;;5070908;28;20048;-71
2022/06/30 08:44:05;;;;;;;9.43;8.00;;;26.10;99.90;;;;;;5070705;28;20053;-72
2022/06/30 08:46:33;;;;;;;9.82;7.90;;;26.10;99.90;;;;;;5064629;28;20056;-72
2022/06/30 08:48:59;;;;;;;9.18;8.18;;;26.20;99.90;;;;;;5068507;28;20063;-72
2022/06/30 08:51:28;;;;;;;14.75;8.93;;;26.20;99.90;;;;;;5074392;28;20056;-72
2022/06/30 08:54:00;;;;;;;9.57;8.50;;;26.30;99.90;;;;;;5067274;28;20084;-72
2022/06/30 08:56:34;;;;;;;9.65;8.65;;;26.40;99.90;;;;;;5052428;28;20484;-72
2022/06/30 08:59:02;;;;;;;9.82;8.90;;;26.50;99.90;;;;;;5040886;28;20045;-72
2022/06/30 09:01:29;;;;;;;9.25;8.20;;;26.60;99.90;;;;;;5054784;28;20500;-72
2022/06/30 09:03:57;;;;;;;10.73;9.57;;;26.70;99.90;;;;;;5072754;28;20064;-72
2022/06/30 09:06:24;;;;;;;10.23;8.55;;;26.70;99.90;;;;;;5057370;28;20052;-72
2022/06/30 09:08:50;;;;;;;9.98;9.05;;;26.70;99.90;;;;;;5071448;28;20044;-72
2022/06/30 09:11:16;;;;;;;12.50;9.48;;;26.80;99.90;;;;;;5055889;28;20492;-72
2022/06/30 09:13:49;;;;;;;11.57;9.52;;;26.90;99.90;;;;;;5074463;28;20043;-71
2022/06/30 09:16:17;;;;;;;11.85;8.60;;;27.00;99.90;;;;;;5056717;28;20098;-72
2022/06/30 09:18:44;;;;;;;11.23;9.45;;;27.10;99.90;;;;;;5074157;28;20049;-72
2022/06/30 09:21:18;;;;;;;10.50;9.50;;;27.10;99.90;;;;;;5053670;28;20122;-72
2022/06/30 09:23:45;;;;;;;10.57;9.57;;;27.10;99.90;;;;;;5074320;28;20044;-72
2022/06/30 09:26:18;;;;;;;11.35;9.18;;;27.20;99.90;;;;;;5072686;28;20063;-72
2022/06/30 09:28:54;;;;;;;9.90;8.90;;;27.20;99.90;;;;;;5055575;28;20066;-71
2022/06/30 09:31:38;;;;;;;10.00;8.95;;;27.30;99.90;;;;;;5074623;28;20464;-72
2022/06/30 09:34:21;;;;;;;10.52;9.52;;;27.40;99.90;;;;;;5063443;28;20052;-72
2022/06/30 09:36:56;;;;;;;10.05;8.95;;;27.50;99.90;;;;;;5073156;28;20079;-72
2022/06/30 09:39:22;;;;;;;10.68;9.48;;;27.50;99.90;;;;;;5072249;28;20044;-72
2022/06/30 09:41:50;;;;;;;11.73;9.65;;;27.50;99.90;;;;;;5061990;28;20044;-72
2022/06/30 09:44:15;;;;;;;10.68;9.68;;;27.70;99.90;;;;;;5070850;28;20076;-72
2022/06/30 09:47:07;;;;;;;9.63;8.68;;;27.80;99.90;;;;;;5072201;28;20066;-72
2022/06/30 09:49:36;;;;;;;10.57;9.40;;;27.80;99.90;;;;;;5053895;28;20048;-72
2022/06/30 09:52:22;;;;;;;10.70;9.35;;;27.90;99.90;;;;;;5072782;28;20059;-72
2022/06/30 09:54:54;;;;;;;10.18;9.18;;;28.00;99.90;;;;;;5071942;28;20045;-73
2022/06/30 09:57:22;;;;;;;9.48;8.52;;;28.20;99.90;;;;;;5074672;28;20268;-72
2022/06/30 10:00:16;;;;;;;11.25;10.05;;;28.20;99.90;;;;;;5072686;28;20394;-72
2022/06/30 10:02:45;;;;;;;11.07;9.80;;;28.30;99.90;;;;;;5062590;28;20045;-72
2022/06/30 10:05:12;;;;;;;10.05;9.15;;;28.30;99.90;;;;;;5072551;28;20144;-72
2022/06/30 10:07:38;;;;;;;9.90;8.90;;;28.40;99.90;;;;;;5062757;28;20174;-72
2022/06/30 10:10:24;;;;;;;9.93;9.02;;;28.50;99.90;;;;;;5044107;28;20055;-73
2022/06/30 10:12:52;;;;;;;10.98;8.80;;;28.70;99.90;;;;;;5055317;28;20044;-72
2022/06/30 10:15:20;;;;;;;10.68;9.68;;;28.70;99.80;;;;;;5055954;28;20040;-72
2022/06/30 10:17:53;;;;;;;10.25;9.25;;;28.80;99.90;;;;;;5042813;28;20073;-72
2022/06/30 10:20:21;;;;;;;10.15;9.07;;;28.80;99.90;;;;;;5051853;28;20048;-72
2022/06/30 10:22:48;;;;;;;11.48;10.38;;;28.80;99.90;;;;;;5056256;28;20048;-72
2022/06/30 10:25:15;;;;;;;12.55;11.18;;;28.70;99.20;;;;;;5038416;28;20068;-72
2022/06/30 10:27:41;;;;;;;12.20;11.10;;;28.80;99.10;;;;;;5039660;28;20419;-72
2022/06/30 10:30:12;;;;;;;12.40;11.15;;;28.70;97.20;;;;;;5054388;28;20044;-72
2022/06/30 10:33:10;;;;;;;11.43;10.32;;;28.30;96.90;;;;;;5075228;28;20129;-72
2022/06/30 10:35:44;;;;;;;10.63;9.63;;;27.90;98.80;;;;;;5051759;28;20045;-71
2022/06/30 10:38:17;;;;;;;10.82;9.73;;;28.00;99.90;;;;;;5065434;28;20041;-71
2022/06/30 10:41:12;;;;;;;11.27;10.00;;;28.20;99.90;;;;;;5076260;28;20094;-72
2022/06/30 10:44:02;;;;;;;10.70;9.70;;;28.20;99.90;;;;;;5061976;28;20049;-72
2022/06/30 10:46:28;;;;;;;10.40;9.45;;;27.90;99.90;;;;;;5046759;28;20044;-72
2022/06/30 10:48:54;;;;;;;10.93;9.88;;;27.80;99.90;;;;;;5059029;28;20040;-72
2022/06/30 10:51:24;;;;;;;11.73;10.60;;;27.60;99.90;;;;;;5054075;28;20101;-72
2022/06/30 10:53:51;;;;;;;12.02;10.93;;;27.40;99.90;;;;;;5059478;28;20087;-72
2022/06/30 10:56:18;;;;;;;12.10;10.80;;;27.20;99.90;;;;;;5075574;28;20048;-71
2022/06/30 10:59:03;;;;;;;11.45;10.50;;;27.20;99.90;;;;;;5055414;28;20161;-72
2022/06/30 11:01:29;;;;;;;21.20;10.73;;;27.10;99.90;;;;;;5057299;28;20076;-72
2022/06/30 11:03:56;;;;;;;12.80;11.50;;;27.10;99.90;;;;;;5075156;28;20049;-72
2022/06/30 11:06:26;;;;;;;14.15;12.68;;;27.10;99.90;;;;;;5075329;28;20075;-71
2022/06/30 11:08:57;;;;;;;14.30;12.40;;;27.10;99.90;;;;;;5041656;28;20059;-71
2022/06/30 11:11:24;;;;;;;12.70;11.27;;;27.00;99.90;;;;;;5076254;28;20040;-72
2022/06/30 11:14:02;;;;;;;13.02;11.50;;;27.00;99.90;;;;;;5070060;28;20063;-71
2022/06/30 11:16:32;;;;;;;13.52;12.23;;;27.30;99.90;;;;;;5074513;28;20052;-72
2022/06/30 11:18:59;;;;;;;11.70;10.60;;;27.60;99.90;;;;;;5075138;28;20040;-71
2022/06/30 11:21:24;;;;;;;11.50;10.07;;;27.70;99.90;;;;;;5052441;28;20051;-72
2022/06/30 11:23:51;;;;;;;11.15;10.15;;;27.60;99.90;;;;;;5070847;28;20053;-72
2022/06/30 11:29:12;;;;;;;11.15;10.05;;;28.00;99.90;;;;;;5075629;28;20139;-71
2022/06/30 11:31:39;;;;;;;9.90;8.95;;;28.00;99.10;;;;;;5066275;28;20048;-72
2022/06/30 11:34:08;;;;;;;9.43;8.40;;;28.10;98.20;;;;;;5075746;28;20045;-72
2022/06/30 11:36:36;;;;;;;9.38;8.30;;;28.50;97.00;;;;;;5076866;28;20044;-72
2022/06/30 11:39:23;;;;;;;9.43;8.48;;;28.80;94.10;;;;;;5073920;28;20673;-72
2022/06/30 11:42:03;;;;;;;10.20;7.35;;;29.10;87.70;;;;;;5058272;28;20679;-72
2022/06/30 11:44:32;;;;;;;8.30;7.60;;;29.40;87.20;;;;;;5074797;28;20041;-72
2022/06/30 11:47:04;;;;;;;9.18;7.30;;;29.50;87.70;;;;;;5074571;28;20082;-73
2022/06/30 11:49:43;;;;;;;9.32;7.78;;;29.50;84.50;;;;;;5057543;28;20056;-72
2022/06/30 11:52:28;;;;;;;9.50;8.40;;;29.40;81.90;;;;;;5074765;28;20120;-72
2022/06/30 11:55:01;;;;;;;9.32;8.02;;;29.40;84.20;;;;;;5069289;28;20510;-74
2022/06/30 11:57:29;;;;;;;8.70;7.90;;;29.30;83.90;;;;;;5076631;28;20434;-72
2022/06/30 12:00:02;;;;;;;7.35;6.55;;;29.00;83.00;;;;;;5073415;28;20127;-72
2022/06/30 12:02:28;;;;;;;6.47;5.88;;;28.80;85.40;;;;;;5076322;28;20250;-72
2022/06/30 12:04:58;;;;;;;6.70;5.80;;;29.00;84.00;;;;;;5076274;28;20055;-72
2022/06/30 12:07:25;;;;;;;6.32;5.25;;;29.20;81.50;;;;;;5073753;28;20052;-72
2022/06/30 12:09:52;;;;;;;7.18;5.43;;;29.50;80.60;;;;;;5073428;28;20491;-72
2022/06/30 12:12:19;;;;;;;5.82;5.32;;;29.70;77.40;;;;;;5047835;28;20108;-72
2022/06/30 12:14:46;;;;;;;5.80;4.93;;;29.80;75.80;;;;;;5040426;28;20048;-72
2022/06/30 12:17:13;;;;;;;5.80;5.20;;;30.00;74.20;;;;;;5073871;28;20036;-72
2022/06/30 12:19:43;;;;;;;5.78;5.00;;;30.10;72.00;;;;;;5072439;28;20075;-72
2022/06/30 12:22:09;;;;;;;7.57;5.53;;;30.20;70.20;;;;;;5067613;28;20483;-72
2022/06/30 12:24:38;;;;;;;5.72;4.93;;;30.30;70.30;;;;;;5074471;28;20365;-72
2022/06/30 12:27:04;;;;;;;5.68;5.05;;;30.40;70.00;;;;;;5038139;28;20103;-72
2022/06/30 12:29:30;;;;;;;7.75;5.20;;;30.50;67.50;;;;;;5048619;28;20597;-72
2022/06/30 12:32:13;;;;;;;5.72;5.22;;;30.50;68.80;;;;;;5044170;28;20086;-72
2022/06/30 12:34:54;;;;;;;4.88;4.47;;;30.60;69.60;;;;;;5075118;28;20136;-72
2022/06/30 12:37:35;;;;;;;5.57;4.85;;;30.70;71.70;;;;;;5056857;28;20565;-72
2022/06/30 12:40:09;;;;;;;7.50;4.88;;;30.80;67.20;;;;;;5070467;28;20557;-72
2022/06/30 12:42:46;;;;;;;5.70;5.10;;;30.90;70.40;;;;;;5063472;28;20109;-72
2022/06/30 12:45:33;;;;;;;6.10;5.50;;;30.90;67.90;;;;;;5057295;28;20052;-72
2022/06/30 12:47:59;;;;;;;5.90;5.40;;;30.80;64.20;;;;;;5074993;28;20062;-72
2022/06/30 12:50:25;;;;;;;5.97;5.38;;;30.70;67.10;;;;;;5055996;28;20464;-72
2022/06/30 12:52:51;;;;;;;7.15;5.47;;;30.70;66.60;;;;;;5016183;28;20049;-73
2022/06/30 12:55:16;;;;;;;8.45;4.85;;;30.80;67.10;;;;;;5071239;28;20067;-72
2022/06/30 12:57:49;;;;;;;7.97;5.40;;;30.70;64.80;;;;;;5056578;28;20040;-72
2022/06/30 13:00:15;;;;;;;7.03;5.43;;;30.70;65.40;;;;;;5040016;28;20044;-72